Time;durP1;ratioP1;P1;durP2;ratioP2;P2;SDS_P1;SDS_P2;PMS_P1;PMS_P2;Temp;Humidity;BMP_temperature;BMP_pressure;BME280_temperature;BME280_humidity;BME280_pressure;Samples;Min_cycle;Max_cycle;Signal;HPM_P1;HPM_P2
2022/11/02 00:01:50;;;;;;;29.13;17.73;;;12.00;69.10;;;;;;5996666;23;114130;-84
2022/11/02 00:04:17;;;;;;;27.92;19.52;;;12.00;69.10;;;;;;5995380;23;114250;-84
2022/11/02 00:06:44;;;;;;;29.38;18.80;;;12.00;69.00;;;;;;5995590;23;114706;-84
2022/11/02 00:09:11;;;;;;;28.13;19.23;;;12.00;68.90;;;;;;5969993;23;118442;-83
2022/11/02 00:11:38;;;;;;;31.77;23.50;;;11.90;68.90;;;;;;5995870;23;114236;-84
2022/11/02 00:14:05;;;;;;;29.55;22.20;;;12.00;68.90;;;;;;5971860;23;114008;-83
2022/11/02 00:16:32;;;;;;;34.13;22.67;;;11.90;69.10;;;;;;5995304;23;114884;-84
2022/11/02 00:19:00;;;;;;;33.47;24.23;;;11.90;69.10;;;;;;5969731;23;114668;-83
2022/11/02 00:21:27;;;;;;;35.90;24.38;;;11.90;69.20;;;;;;5994588;23;115271;-82
2022/11/02 00:23:54;;;;;;;38.22;24.88;;;11.90;69.20;;;;;;5997154;23;114049;-83
2022/11/02 00:26:21;;;;;;;34.38;23.25;;;11.90;69.20;;;;;;5995347;23;114871;-83
2022/11/02 00:28:48;;;;;;;33.92;22.40;;;11.90;69.20;;;;;;5994339;23;114648;-81
2022/11/02 00:31:15;;;;;;;34.90;22.98;;;11.90;69.20;;;;;;5995389;23;114010;-83
2022/11/02 00:33:42;;;;;;;32.25;23.17;;;11.90;69.20;;;;;;5996426;23;114157;-83
2022/11/02 00:36:09;;;;;;;37.05;23.75;;;11.90;69.20;;;;;;5992868;23;114858;-82
2022/11/02 00:38:36;;;;;;;39.85;26.33;;;11.90;69.20;;;;;;5994114;23;115038;-83
2022/11/02 00:41:04;;;;;;;42.22;25.85;;;11.80;69.30;;;;;;5971695;23;114439;-83
2022/11/02 00:43:31;;;;;;;39.05;28.05;;;11.80;69.40;;;;;;5994989;23;114190;-83
2022/11/02 00:45:58;;;;;;;37.92;27.45;;;11.90;69.40;;;;;;5970302;23;116789;-82
2022/11/02 00:48:26;;;;;;;45.72;29.80;;;11.80;69.50;;;;;;5995111;23;114554;-83
2022/11/02 00:50:53;;;;;;;39.63;28.17;;;11.90;69.60;;;;;;5995086;23;114331;-82
2022/11/02 00:53:24;;;;;;;40.97;28.02;;;11.90;69.50;;;;;;5995421;23;114264;-82
2022/11/02 00:55:52;;;;;;;38.47;26.13;;;11.80;69.60;;;;;;5993787;23;114926;-82
2022/11/02 00:58:20;;;;;;;44.22;29.13;;;11.90;69.50;;;;;;5993884;23;115876;-81
2022/11/02 01:00:48;;;;;;;37.15;27.05;;;11.90;69.50;;;;;;5994600;23;114331;-83
2022/11/02 01:03:15;;;;;;;38.83;27.40;;;11.90;69.60;;;;;;5996896;23;114150;-83
2022/11/02 01:05:42;;;;;;;42.55;28.80;;;11.90;69.60;;;;;;5994473;23;115176;-83
2022/11/02 01:08:10;;;;;;;39.38;27.17;;;11.90;69.70;;;;;;5995576;23;115274;-83
2022/11/02 01:10:37;;;;;;;35.42;25.30;;;11.90;69.50;;;;;;5995917;23;114647;-82
2022/11/02 01:13:08;;;;;;;37.55;24.88;;;11.90;69.30;;;;;;5958519;23;114143;-82
2022/11/02 01:15:38;;;;;;;37.15;23.90;;;11.80;69.60;;;;;;6002782;23;114243;-83
2022/11/02 01:18:05;;;;;;;37.38;24.23;;;11.80;69.60;;;;;;5995487;23;114635;-83
2022/11/02 01:20:32;;;;;;;42.42;26.70;;;11.90;69.70;;;;;;5996046;23;114466;-83
2022/11/02 01:22:59;;;;;;;36.60;24.60;;;11.80;69.50;;;;;;5997744;23;114087;-83
2022/11/02 01:25:26;;;;;;;34.65;23.20;;;11.80;69.60;;;;;;5994616;23;114978;-84
2022/11/02 01:27:53;;;;;;;34.30;23.40;;;11.80;69.70;;;;;;5995041;23;114601;-82
2022/11/02 01:30:20;;;;;;;36.90;23.35;;;11.80;69.80;;;;;;5972239;23;114036;-84
2022/11/02 01:32:47;;;;;;;33.58;20.88;;;11.80;69.70;;;;;;5997457;23;114472;-83
2022/11/02 01:35:15;;;;;;;31.92;20.83;;;11.70;69.70;;;;;;5995942;23;115203;-84
2022/11/02 01:37:42;;;;;;;30.23;19.42;;;11.80;69.70;;;;;;5995163;23;115402;-84
2022/11/02 01:40:10;;;;;;;27.13;18.30;;;11.70;69.60;;;;;;5995810;23;114214;-83
2022/11/02 01:42:37;;;;;;;26.45;17.60;;;11.70;69.60;;;;;;5996584;23;114219;-82
2022/11/02 01:45:04;;;;;;;28.08;18.25;;;11.70;69.60;;;;;;5994325;23;118812;-83
2022/11/02 01:47:36;;;;;;;26.88;17.98;;;11.70;69.50;;;;;;5970393;23;115196;-82
2022/11/02 01:50:09;;;;;;;22.98;15.77;;;11.70;69.40;;;;;;5995111;23;114046;-82
2022/11/02 01:52:37;;;;;;;22.88;15.13;;;11.70;69.50;;;;;;5996842;23;114324;-83
2022/11/02 01:55:18;;;;;;;22.35;15.57;;;11.70;69.40;;;;;;5970609;23;114762;-83
2022/11/02 01:57:47;;;;;;;22.45;14.70;;;11.70;69.50;;;;;;5972144;23;115268;-83
2022/11/02 02:00:15;;;;;;;23.83;14.27;;;11.70;69.40;;;;;;5995289;23;114124;-84
2022/11/02 02:03:15;;;;;;;20.58;13.65;;;11.70;69.40;;;;;;5996161;23;114731;-82
2022/11/02 02:06:06;;;;;;;17.85;13.07;;;11.70;69.20;;;;;;5993807;23;115048;-82
2022/11/02 02:08:35;;;;;;;21.13;15.43;;;11.60;69.50;;;;;;5952268;23;114588;-83
2022/11/02 02:11:19;;;;;;;22.27;14.05;;;11.60;69.40;;;;;;5971222;23;114217;-84
2022/11/02 02:13:46;;;;;;;20.15;14.77;;;11.60;69.30;;;;;;5995506;23;114343;-81
2022/11/02 02:16:16;;;;;;;20.88;13.82;;;11.50;69.40;;;;;;5995289;23;115394;-81
2022/11/02 02:18:50;;;;;;;21.27;14.27;;;11.50;69.40;;;;;;5971662;23;114747;-82
2022/11/02 02:21:55;;;;;;;22.60;14.73;;;11.50;69.40;;;;;;5996187;23;114258;-81
2022/11/02 02:24:32;;;;;;;24.45;15.70;;;11.60;69.30;;;;;;6021164;23;114250;-83
2022/11/02 02:27:14;;;;;;;23.05;15.32;;;11.50;69.40;;;;;;5971137;23;119056;-82
2022/11/02 02:30:08;;;;;;;23.77;16.90;;;11.40;69.50;;;;;;5971565;23;114705;-82
2022/11/02 02:32:56;;;;;;;23.40;17.33;;;11.50;69.50;;;;;;5971443;23;114185;-82
2022/11/02 02:35:48;;;;;;;24.80;16.80;;;11.40;69.40;;;;;;5971740;23;114492;-83
2022/11/02 02:38:26;;;;;;;22.58;16.50;;;11.40;69.50;;;;;;5989561;23;114941;-82
2022/11/02 02:40:58;;;;;;;23.10;16.23;;;11.30;69.60;;;;;;5971818;23;114593;-83
2022/11/02 02:43:35;;;;;;;25.27;17.27;;;11.20;69.80;;;;;;5994411;23;115890;-82
2022/11/02 02:46:08;;;;;;;23.40;16.13;;;11.30;69.70;;;;;;5994495;23;114485;-82
2022/11/02 02:48:35;;;;;;;24.70;16.40;;;11.30;70.00;;;;;;5969913;23;117177;-82
2022/11/02 02:51:11;;;;;;;23.05;15.57;;;11.20;69.70;;;;;;5993483;23;114959;-81
2022/11/02 02:53:53;;;;;;;23.67;16.80;;;11.20;69.70;;;;;;5971069;23;114111;-82
2022/11/02 02:56:20;;;;;;;23.60;15.77;;;11.20;69.70;;;;;;5996098;23;114606;-82
2022/11/02 02:58:51;;;;;;;24.00;15.40;;;11.20;69.80;;;;;;5970285;23;115641;-83
2022/11/02 03:01:19;;;;;;;19.67;14.63;;;11.20;70.00;;;;;;5971957;23;114615;-83
2022/11/02 03:03:47;;;;;;;20.90;14.73;;;11.20;70.00;;;;;;5972903;23;114403;-83
2022/11/02 03:06:15;;;;;;;22.52;16.67;;;11.10;70.00;;;;;;6009562;23;113957;-83
2022/11/02 03:08:55;;;;;;;26.08;15.52;;;11.10;70.00;;;;;;5952002;23;115396;-84
2022/11/02 03:11:23;;;;;;;21.27;15.40;;;11.10;70.00;;;;;;5995766;23;114669;-84
2022/11/02 03:14:14;;;;;;;22.08;16.00;;;11.10;69.90;;;;;;5996822;23;114318;-83
2022/11/02 03:17:08;;;;;;;22.27;15.27;;;11.20;69.70;;;;;;5974663;23;114400;-84
2022/11/02 03:19:57;;;;;;;20.58;14.27;;;11.10;70.00;;;;;;5973870;23;114890;-82
2022/11/02 03:22:32;;;;;;;22.15;15.35;;;11.00;70.30;;;;;;5997165;23;114575;-82
2022/11/02 03:25:17;;;;;;;21.40;14.80;;;11.00;70.30;;;;;;5974466;23;114110;-82
2022/11/02 03:27:52;;;;;;;21.23;14.27;;;11.00;70.00;;;;;;5996752;23;114246;-83
2022/11/02 03:30:21;;;;;;;22.95;14.98;;;11.00;70.10;;;;;;5995274;23;114897;-83
2022/11/02 03:33:00;;;;;;;22.92;14.43;;;11.10;70.10;;;;;;5995968;23;114729;-83
2022/11/02 03:35:31;;;;;;;20.42;14.73;;;11.00;70.10;;;;;;5996357;23;114268;-82
2022/11/02 03:38:24;;;;;;;23.17;15.60;;;11.00;70.20;;;;;;5996723;23;114303;-83
2022/11/02 03:40:53;;;;;;;21.75;14.65;;;11.10;70.00;;;;;;5972125;23;114781;-83
2022/11/02 03:43:20;;;;;;;24.98;15.52;;;11.00;70.40;;;;;;5971870;23;114585;-83
2022/11/02 03:45:52;;;;;;;23.63;14.73;;;11.00;70.20;;;;;;5973286;23;115525;-81
2022/11/02 03:48:20;;;;;;;22.50;14.70;;;11.00;70.40;;;;;;5973274;23;114203;-83
2022/11/02 03:50:49;;;;;;;22.23;13.10;;;11.00;70.50;;;;;;5972112;23;114931;-83
2022/11/02 03:53:49;;;;;;;25.67;15.02;;;11.00;70.70;;;;;;5972550;23;114699;-83
2022/11/02 03:56:38;;;;;;;24.80;15.20;;;11.00;70.60;;;;;;5995993;23;114395;-82
2022/11/02 03:59:07;;;;;;;24.25;15.18;;;11.00;70.70;;;;;;6000151;23;114202;-83
2022/11/02 04:01:39;;;;;;;25.90;15.73;;;11.00;70.50;;;;;;5971189;23;114892;-83
2022/11/02 04:04:06;;;;;;;30.67;17.75;;;11.00;70.60;;;;;;5971809;23;114411;-83
2022/11/02 04:06:34;;;;;;;31.67;17.10;;;11.00;70.60;;;;;;5997604;23;114373;-81
2022/11/02 04:09:02;;;;;;;43.00;22.70;;;11.00;70.60;;;;;;5972665;23;114284;-83
2022/11/02 04:19:51;;;;;;;34.67;18.83;;;11.00;70.40;;;;;;5996289;23;114401;-81
2022/11/02 04:25:19;;;;;;;34.70;19.02;;;10.90;70.70;;;;;;5996978;23;115012;-82
2022/11/02 04:28:07;;;;;;;36.38;19.05;;;11.00;70.80;;;;;;5994787;23;114323;-82
2022/11/02 04:30:39;;;;;;;35.27;20.60;;;10.90;70.80;;;;;;5973341;23;114139;-83
2022/11/02 04:36:03;;;;;;;36.65;20.27;;;10.90;70.70;;;;;;5995045;23;114753;-82
2022/11/02 04:38:39;;;;;;;37.03;21.88;;;11.00;70.80;;;;;;5973224;23;114138;-81
2022/11/02 04:44:13;;;;;;;36.00;19.85;;;11.00;70.80;;;;;;5995512;23;114899;-82
2022/11/02 04:46:43;;;;;;;39.53;21.10;;;11.00;70.90;;;;;;5974088;23;115157;-82
2022/11/02 04:49:11;;;;;;;36.30;21.73;;;11.00;70.90;;;;;;5996425;23;114463;-82
2022/11/02 04:51:41;;;;;;;38.10;22.63;;;11.00;70.90;;;;;;5995697;23;114042;-83
2022/11/02 04:54:17;;;;;;;34.75;20.85;;;11.00;70.80;;;;;;5999152;23;114929;-82
2022/11/02 04:56:46;;;;;;;32.47;20.33;;;11.00;70.90;;;;;;5988161;23;114144;-82
2022/11/02 04:59:14;;;;;;;29.20;19.42;;;11.10;71.10;;;;;;6002583;23;114396;-83
2022/11/02 05:01:42;;;;;;;36.95;23.05;;;11.00;71.10;;;;;;5995706;23;114650;-81
2022/11/02 05:04:09;;;;;;;36.97;21.40;;;11.10;70.90;;;;;;5993431;23;115410;-80
2022/11/02 05:06:38;;;;;;;29.60;20.65;;;11.10;70.80;;;;;;5969039;23;114810;-82
2022/11/02 05:09:07;;;;;;;35.35;22.45;;;11.10;70.90;;;;;;5994467;23;114221;-83
2022/11/02 05:11:37;;;;;;;31.60;18.73;;;11.10;70.80;;;;;;5995574;23;114345;-83
2022/11/02 05:14:05;;;;;;;29.88;18.25;;;11.10;71.10;;;;;;5993260;23;115481;-83
2022/11/02 05:16:32;;;;;;;31.67;20.85;;;11.10;71.00;;;;;;5993210;23;115870;-84
2022/11/02 05:19:00;;;;;;;33.65;20.73;;;11.10;70.90;;;;;;5993713;23;114380;-84
2022/11/02 05:21:32;;;;;;;24.45;16.75;;;11.10;70.80;;;;;;5995034;23;114244;-83
2022/11/02 05:24:00;;;;;;;28.63;17.83;;;11.10;71.00;;;;;;5969806;23;114876;-84
2022/11/02 05:26:27;;;;;;;30.55;20.23;;;11.10;71.10;;;;;;5993037;23;114560;-83
2022/11/02 05:28:55;;;;;;;25.67;17.00;;;11.00;71.00;;;;;;5994261;23;114424;-83
2022/11/02 05:31:22;;;;;;;25.27;17.25;;;11.00;71.00;;;;;;5994361;23;114542;-83
2022/11/02 05:33:49;;;;;;;23.67;16.38;;;11.00;70.90;;;;;;5992900;23;114676;-83
2022/11/02 05:36:20;;;;;;;31.17;18.70;;;11.00;71.00;;;;;;5993725;23;114780;-83
2022/11/02 05:38:53;;;;;;;30.65;20.35;;;11.00;71.10;;;;;;5994968;23;114010;-84
2022/11/02 05:41:21;;;;;;;26.05;16.98;;;11.00;71.00;;;;;;5993403;23;114449;-84
2022/11/02 05:43:50;;;;;;;27.42;16.70;;;11.00;71.00;;;;;;5992324;23;115354;-84
2022/11/02 05:46:19;;;;;;;29.75;17.77;;;11.00;71.10;;;;;;5992730;23;114527;-83
2022/11/02 05:48:47;;;;;;;26.30;17.00;;;11.00;71.00;;;;;;5994197;23;114445;-85
2022/11/02 05:51:14;;;;;;;28.80;19.38;;;11.00;71.10;;;;;;5994407;23;114411;-84
2022/11/02 05:53:41;;;;;;;27.67;20.13;;;10.90;70.80;;;;;;5969500;23;115950;-84
2022/11/02 05:56:09;;;;;;;25.38;17.75;;;10.90;70.70;;;;;;5991925;23;117872;-81
2022/11/02 05:58:36;;;;;;;21.80;14.73;;;10.80;70.80;;;;;;5970808;23;114393;-82
2022/11/02 06:01:04;;;;;;;29.40;18.35;;;10.80;71.30;;;;;;5996525;23;114443;-82
2022/11/02 06:03:31;;;;;;;26.40;17.55;;;10.80;71.00;;;;;;5993324;23;114761;-83
2022/11/02 06:05:59;;;;;;;27.00;17.52;;;10.80;70.90;;;;;;5993571;23;114543;-82
2022/11/02 06:08:26;;;;;;;26.15;16.83;;;10.90;70.90;;;;;;5994054;23;114278;-81
2022/11/02 06:10:53;;;;;;;23.38;15.55;;;10.90;70.80;;;;;;5995841;23;114111;-82
2022/11/02 06:13:21;;;;;;;24.05;16.35;;;11.00;70.80;;;;;;5992392;23;114670;-81
2022/11/02 06:15:48;;;;;;;26.58;16.38;;;11.10;70.70;;;;;;5994447;23;114585;-81
2022/11/02 06:18:15;;;;;;;24.58;17.08;;;11.20;70.30;;;;;;5995538;23;116058;-82
2022/11/02 06:20:42;;;;;;;22.75;16.30;;;11.20;70.20;;;;;;5997058;23;114508;-80
2022/11/02 06:23:09;;;;;;;28.15;17.17;;;11.20;70.10;;;;;;5996675;23;116152;-81
2022/11/02 06:25:36;;;;;;;24.90;16.50;;;11.30;69.80;;;;;;5994414;23;115003;-82
2022/11/02 06:28:03;;;;;;;24.13;16.20;;;11.40;69.70;;;;;;5994146;23;114390;-82
2022/11/02 06:30:31;;;;;;;25.55;16.25;;;11.50;69.60;;;;;;5994319;23;114322;-81
2022/11/02 06:32:58;;;;;;;25.83;15.95;;;11.50;69.40;;;;;;5994044;23;115108;-82
2022/11/02 06:35:32;;;;;;;23.40;15.73;;;11.50;69.50;;;;;;5993991;23;114645;-81
2022/11/02 06:37:59;;;;;;;25.77;17.42;;;11.60;69.60;;;;;;5995643;23;114568;-82
2022/11/02 06:40:28;;;;;;;23.65;15.63;;;11.70;69.40;;;;;;5995829;23;114325;-83
2022/11/02 06:42:55;;;;;;;28.48;16.95;;;11.80;69.10;;;;;;5994528;23;114780;-82
2022/11/02 06:45:42;;;;;;;28.02;17.20;;;11.80;68.60;;;;;;5992810;23;114614;-83
2022/11/02 06:48:09;;;;;;;25.20;16.17;;;11.90;68.40;;;;;;5993496;23;114567;-83
2022/11/02 06:50:36;;;;;;;25.63;15.98;;;12.00;68.30;;;;;;5995793;23;114505;-82
2022/11/02 06:53:03;;;;;;;27.88;17.08;;;12.00;68.20;;;;;;5994435;23;115701;-81
2022/11/02 06:55:30;;;;;;;28.13;16.90;;;12.10;68.20;;;;;;5992303;23;115087;-81
2022/11/02 06:57:57;;;;;;;29.13;18.67;;;12.10;68.00;;;;;;5993424;23;114320;-84
2022/11/02 07:00:24;;;;;;;26.60;17.83;;;12.20;67.90;;;;;;5970618;23;114139;-81
2022/11/02 07:03:18;;;;;;;27.88;16.98;;;12.30;67.70;;;;;;5994305;23;114928;-83
2022/11/02 07:05:50;;;;;;;32.40;17.83;;;12.50;68.40;;;;;;5993042;23;115200;-83
2022/11/02 07:08:17;;;;;;;31.08;18.52;;;12.50;67.20;;;;;;5994182;23;114718;-82
2022/11/02 07:10:45;;;;;;;30.80;18.08;;;12.50;67.40;;;;;;5998867;23;113982;-83
2022/11/02 07:13:12;;;;;;;30.13;18.95;;;12.70;67.40;;;;;;5969935;23;114798;-83
2022/11/02 07:15:39;;;;;;;30.27;17.60;;;12.70;66.70;;;;;;5993499;23;115742;-83
2022/11/02 07:18:07;;;;;;;28.88;17.27;;;12.80;66.50;;;;;;5996372;23;114711;-84
2022/11/02 07:20:34;;;;;;;27.85;16.70;;;12.90;66.20;;;;;;5995341;23;114268;-82
2022/11/02 07:23:05;;;;;;;28.10;15.75;;;13.00;65.80;;;;;;5991641;23;114643;-81
2022/11/02 07:25:32;;;;;;;27.20;15.95;;;13.00;65.90;;;;;;5992000;23;114605;-82
2022/11/02 07:28:00;;;;;;;25.02;14.35;;;13.10;65.60;;;;;;5993022;23;114445;-82
2022/11/02 07:30:28;;;;;;;24.83;14.65;;;13.20;65.70;;;;;;5992881;23;114293;-81
2022/11/02 07:32:56;;;;;;;26.33;14.15;;;13.30;65.50;;;;;;5991591;23;114867;-82
2022/11/02 07:35:23;;;;;;;27.38;14.95;;;13.40;65.20;;;;;;5992190;23;114554;-82
2022/11/02 07:37:54;;;;;;;26.33;14.65;;;13.50;64.90;;;;;;5993616;23;114031;-82
2022/11/02 07:40:21;;;;;;;21.92;13.00;;;13.70;64.50;;;;;;5994170;23;114473;-83
2022/11/02 07:42:48;;;;;;;27.92;16.48;;;13.70;64.60;;;;;;5992311;23;114935;-80
2022/11/02 07:45:20;;;;;;;25.05;14.85;;;13.80;64.10;;;;;;5969989;23;114915;-81
2022/11/02 07:47:47;;;;;;;21.38;14.35;;;13.90;64.00;;;;;;5995972;23;114023;-82
2022/11/02 07:50:16;;;;;;;24.58;14.77;;;14.00;63.70;;;;;;5996371;23;114178;-81
2022/11/02 07:52:51;;;;;;;24.38;14.63;;;14.20;63.40;;;;;;5993705;23;114926;-81
2022/11/02 07:55:22;;;;;;;26.48;15.13;;;14.30;62.90;;;;;;6003597;23;115116;-81
2022/11/02 07:58:00;;;;;;;28.58;14.48;;;14.30;62.70;;;;;;6025020;23;114490;-81
2022/11/02 08:00:30;;;;;;;27.00;15.80;;;14.40;62.40;;;;;;6025324;23;114266;-82
2022/11/02 08:02:57;;;;;;;24.58;13.85;;;14.50;62.20;;;;;;5999275;23;115122;-82
2022/11/02 08:05:25;;;;;;;26.88;14.98;;;14.50;62.30;;;;;;6024521;23;114912;-82
2022/11/02 08:08:05;;;;;;;27.70;17.63;;;14.60;62.20;;;;;;6025379;23;114096;-82
2022/11/02 08:10:36;;;;;;;24.67;15.68;;;14.70;61.70;;;;;;6025079;23;114444;-83
2022/11/02 08:13:07;;;;;;;31.60;15.80;;;14.70;61.60;;;;;;5998920;23;114902;-82
2022/11/02 08:15:35;;;;;;;27.10;14.98;;;14.70;61.40;;;;;;5998735;23;114590;-81
2022/11/02 08:18:23;;;;;;;22.40;13.93;;;14.80;61.40;;;;;;6024595;23;114327;-82
2022/11/02 08:20:50;;;;;;;25.50;14.93;;;15.00;61.20;;;;;;6025217;23;114947;-82
2022/11/02 08:23:18;;;;;;;25.98;15.38;;;14.90;60.90;;;;;;6027373;23;115267;-82
2022/11/02 08:25:45;;;;;;;23.90;13.93;;;15.00;60.80;;;;;;6024315;23;114648;-82
2022/11/02 08:28:21;;;;;;;22.88;13.63;;;15.10;60.70;;;;;;6000019;23;114385;-83
2022/11/02 08:30:48;;;;;;;21.05;12.63;;;15.20;60.50;;;;;;6025710;23;114233;-82
2022/11/02 08:33:16;;;;;;;22.38;14.20;;;15.30;60.50;;;;;;5998642;23;114871;-82
2022/11/02 08:35:44;;;;;;;23.27;14.05;;;15.30;60.20;;;;;;5998780;23;114649;-81
2022/11/02 08:38:11;;;;;;;18.88;12.02;;;15.40;60.10;;;;;;6024594;23;114356;-82
2022/11/02 08:40:38;;;;;;;15.50;10.07;;;15.50;59.90;;;;;;5928592;23;114540;-82
2022/11/02 08:43:07;;;;;;;15.40;10.48;;;15.60;59.90;;;;;;5970140;23;114843;-84
2022/11/02 08:45:35;;;;;;;15.05;10.10;;;15.70;59.50;;;;;;5946974;23;115936;-83
2022/11/02 08:48:22;;;;;;;14.90;9.52;;;15.70;59.50;;;;;;5995499;23;114177;-82
2022/11/02 08:50:49;;;;;;;16.27;9.57;;;15.70;59.40;;;;;;5971241;23;114352;-84
2022/11/02 08:53:16;;;;;;;14.68;8.23;;;15.80;59.50;;;;;;5994853;23;114769;-80
2022/11/02 08:55:43;;;;;;;13.68;7.60;;;15.80;59.00;;;;;;5970107;23;115944;-80
2022/11/02 08:58:10;;;;;;;9.38;6.60;;;15.90;58.80;;;;;;5995320;23;114409;-82
2022/11/02 09:00:37;;;;;;;11.35;6.60;;;15.90;58.40;;;;;;5970707;23;114656;-81
2022/11/02 09:03:05;;;;;;;10.45;6.10;;;16.00;58.40;;;;;;5993503;23;115467;-82
2022/11/02 09:05:37;;;;;;;11.93;6.00;;;16.00;58.40;;;;;;5994681;23;114679;-81
2022/11/02 09:08:10;;;;;;;11.65;6.22;;;16.00;58.10;;;;;;5970916;23;114083;-81
2022/11/02 09:10:37;;;;;;;10.57;6.33;;;16.00;58.10;;;;;;5996118;23;114243;-82
2022/11/02 09:13:06;;;;;;;10.48;6.15;;;16.00;58.30;;;;;;5994540;23;114969;-81
2022/11/02 09:15:34;;;;;;;11.07;6.80;;;16.00;58.10;;;;;;5970381;23;114551;-82
2022/11/02 09:18:02;;;;;;;11.25;6.47;;;16.00;58.20;;;;;;5947893;23;114215;-82
2022/11/02 09:20:29;;;;;;;9.85;6.60;;;16.00;58.30;;;;;;5996186;23;114167;-81
2022/11/02 09:22:56;;;;;;;8.80;6.25;;;16.00;58.30;;;;;;5970236;23;114863;-82
2022/11/02 09:25:23;;;;;;;9.60;6.03;;;16.00;58.40;;;;;;5969894;23;116373;-80
2022/11/02 09:27:54;;;;;;;9.02;5.93;;;16.10;58.30;;;;;;5970670;23;114437;-81
2022/11/02 09:30:22;;;;;;;8.27;5.28;;;16.10;58.10;;;;;;5971554;23;114591;-82
2022/11/02 09:32:57;;;;;;;8.88;5.50;;;16.20;57.90;;;;;;5970301;23;115116;-81
2022/11/02 09:35:24;;;;;;;9.75;5.38;;;16.20;57.70;;;;;;5994619;23;114648;-83
2022/11/02 09:37:51;;;;;;;9.63;5.22;;;16.20;57.60;;;;;;5974726;23;114163;-81
2022/11/02 09:40:24;;;;;;;8.30;5.28;;;16.10;57.50;;;;;;5974250;23;114099;-82
2022/11/02 09:42:56;;;;;;;9.52;5.30;;;16.20;57.40;;;;;;5971813;23;114399;-82
2022/11/02 09:45:23;;;;;;;9.18;5.65;;;16.20;57.50;;;;;;5996844;23;114967;-82
2022/11/02 09:47:56;;;;;;;9.30;5.93;;;16.20;57.50;;;;;;5972165;23;114261;-81
2022/11/02 09:50:47;;;;;;;10.93;5.45;;;16.20;57.20;;;;;;5975370;23;114309;-80
2022/11/02 09:53:21;;;;;;;9.65;5.45;;;16.20;57.40;;;;;;5994562;23;114848;-79
2022/11/02 09:55:48;;;;;;;;;;;16.20;57.20;;;;;;5969854;23;114725;-80
2022/11/02 09:58:18;;;;;;;8.93;5.05;;;16.20;58.30;;;;;;5996518;23;114222;-82
2022/11/02 10:00:47;;;;;;;10.30;4.90;;;16.20;57.60;;;;;;5970785;23;114729;-82
2022/11/02 10:03:36;;;;;;;8.25;4.30;;;16.20;57.00;;;;;;5946330;23;116140;-81
2022/11/02 10:06:14;;;;;;;9.38;4.10;;;16.20;56.60;;;;;;5969589;23;117438;-81
2022/11/02 10:08:51;;;;;;;6.95;3.75;;;16.20;56.70;;;;;;5971569;23;114727;-80
2022/11/02 10:11:36;;;;;;;7.30;4.55;;;16.30;56.70;;;;;;5949243;23;114109;-81
2022/11/02 10:14:13;;;;;;;7.35;3.80;;;16.30;56.50;;;;;;5994690;23;116264;-82
2022/11/02 10:16:54;;;;;;;8.23;4.47;;;16.30;56.20;;;;;;5970005;23;114628;-82
2022/11/02 10:19:21;;;;;;;6.28;4.15;;;16.40;56.10;;;;;;5970324;23;114272;-82
2022/11/02 10:21:55;;;;;;;;;;;16.30;56.00;;;;;;5972442;23;114325;-82
2022/11/02 10:24:25;;;;;;;6.88;4.50;;;16.30;57.30;;;;;;5970334;23;114831;-82
2022/11/02 10:26:55;;;;;;;9.43;5.00;;;16.30;56.20;;;;;;5970464;23;114603;-81
2022/11/02 10:29:58;;;;;;;7.63;5.45;;;16.30;56.00;;;;;;5971565;23;115678;-81
2022/11/02 10:32:25;;;;;;;11.32;6.03;;;16.40;56.10;;;;;;5995928;23;114793;-81
2022/11/02 10:34:52;;;;;;;12.48;7.13;;;16.30;56.10;;;;;;5969998;23;114851;-81
2022/11/02 10:37:57;;;;;;;11.20;7.03;;;16.30;56.20;;;;;;5974380;23;115258;-82
2022/11/02 10:40:56;;;;;;;10.90;6.57;;;16.30;56.70;;;;;;5995224;23;114850;-82
2022/11/02 10:44:03;;;;;;;12.50;7.78;;;16.20;56.60;;;;;;5946889;23;114831;-81
2022/11/02 10:46:58;;;;;;;10.43;6.68;;;16.20;56.80;;;;;;5993679;23;114994;-82
2022/11/02 10:49:40;;;;;;;12.55;7.25;;;16.20;57.00;;;;;;5994223;23;114706;-82
2022/11/02 10:52:10;;;;;;;14.07;7.82;;;16.20;57.10;;;;;;5994746;23;114375;-82
2022/11/02 10:54:37;;;;;;;10.40;6.65;;;16.10;57.00;;;;;;5970494;23;114373;-81
2022/11/02 10:57:12;;;;;;;12.98;7.22;;;16.20;57.00;;;;;;5994565;23;114868;-82
2022/11/02 10:59:39;;;;;;;8.57;6.50;;;16.10;56.70;;;;;;5970028;23;114664;-80
2022/11/02 11:02:12;;;;;;;11.93;6.88;;;16.10;57.00;;;;;;5970448;23;114203;-81
2022/11/02 11:04:39;;;;;;;9.95;5.90;;;16.10;56.80;;;;;;5969787;23;114860;-80
2022/11/02 11:07:13;;;;;;;11.25;6.75;;;16.10;56.90;;;;;;5968834;23;115341;-81
2022/11/02 11:09:52;;;;;;;10.13;6.23;;;16.10;56.90;;;;;;5969409;23;114641;-81
2022/11/02 11:12:23;;;;;;;8.73;5.47;;;16.10;57.00;;;;;;5969420;23;114330;-80
2022/11/02 11:14:57;;;;;;;13.00;6.03;;;16.00;57.20;;;;;;5970165;23;114350;-80
2022/11/02 11:17:44;;;;;;;10.80;6.35;;;16.10;57.20;;;;;;5973222;23;114962;-80
2022/11/02 11:21:19;;;;;;;12.02;5.88;;;16.00;57.30;;;;;;5973144;23;115503;-80
2022/11/02 11:23:46;;;;;;;9.70;5.68;;;16.00;57.20;;;;;;5996577;23;114127;-80
2022/11/02 11:26:27;;;;;;;8.25;5.30;;;15.90;57.40;;;;;;5971382;23;115048;-80
2022/11/02 11:28:54;;;;;;;11.70;6.00;;;16.00;57.20;;;;;;5946745;23;116701;-80
2022/11/02 11:31:21;;;;;;;8.65;5.90;;;16.00;57.40;;;;;;5995919;23;114791;-81
2022/11/02 11:33:53;;;;;;;10.18;5.40;;;16.00;57.40;;;;;;5971664;23;114090;-81
2022/11/02 11:36:21;;;;;;;8.73;5.47;;;16.00;57.20;;;;;;5996537;23;114928;-81
2022/11/02 11:38:48;;;;;;;8.60;5.07;;;15.90;57.30;;;;;;5969359;23;114932;-80
2022/11/02 11:41:15;;;;;;;8.57;4.70;;;15.90;57.40;;;;;;5970080;23;114733;-81
2022/11/02 11:43:42;;;;;;;9.65;5.20;;;15.90;57.30;;;;;;5996664;23;114312;-81
2022/11/02 11:46:10;;;;;;;9.23;4.45;;;16.00;57.20;;;;;;5971060;23;114196;-81
2022/11/02 11:48:54;;;;;;;10.07;5.28;;;16.00;57.20;;;;;;5969793;23;114788;-81
2022/11/02 11:51:27;;;;;;;9.40;4.93;;;16.10;57.20;;;;;;5995091;23;114639;-81
2022/11/02 11:54:23;;;;;;;7.83;4.53;;;16.10;56.70;;;;;;5996527;23;114169;-80
2022/11/02 11:56:58;;;;;;;8.50;5.10;;;16.10;56.80;;;;;;5995154;23;114239;-80
2022/11/02 11:59:43;;;;;;;7.82;4.60;;;16.10;57.10;;;;;;5969880;23;114907;-80
2022/11/02 12:02:24;;;;;;;8.27;4.50;;;16.10;57.10;;;;;;5995122;23;115361;-80
2022/11/02 12:05:17;;;;;;;9.00;5.25;;;16.20;56.80;;;;;;5970643;23;114270;-80
2022/11/02 12:07:59;;;;;;;8.23;5.70;;;16.10;56.80;;;;;;5975667;23;114294;-79
2022/11/02 12:10:45;;;;;;;8.55;5.68;;;16.10;57.00;;;;;;5994957;23;114877;-80
2022/11/02 12:13:13;;;;;;;8.93;5.80;;;16.10;57.10;;;;;;5994931;23;114659;-80
2022/11/02 12:16:02;;;;;;;9.35;5.35;;;16.00;56.90;;;;;;5996332;23;114942;-80
2022/11/02 12:18:38;;;;;;;8.48;5.68;;;16.10;56.90;;;;;;5995883;23;114396;-80
2022/11/02 12:21:08;;;;;;;12.70;5.55;;;16.00;57.20;;;;;;5969584;23;114859;-80
2022/11/02 12:23:57;;;;;;;9.50;5.32;;;16.10;57.10;;;;;;5995963;23;114665;-79
2022/11/02 12:26:50;;;;;;;9.32;6.38;;;16.00;56.90;;;;;;5949527;23;114209;-80
2022/11/02 12:29:37;;;;;;;9.70;4.80;;;16.00;57.00;;;;;;5970879;23;114494;-80
2022/11/02 12:32:13;;;;;;;8.32;4.95;;;16.00;57.40;;;;;;5970082;23;114811;-80
2022/11/02 12:35:18;;;;;;;14.05;5.63;;;16.00;57.30;;;;;;5971477;23;114648;-82
2022/11/02 12:38:06;;;;;;;10.73;5.13;;;16.10;57.30;;;;;;5972864;23;114298;-82
2022/11/02 12:40:55;;;;;;;10.02;5.32;;;16.00;57.30;;;;;;5970724;23;114202;-82
2022/11/02 12:43:38;;;;;;;8.27;5.25;;;16.10;57.20;;;;;;5946812;23;114794;-83
2022/11/02 12:46:20;;;;;;;7.93;4.97;;;16.10;56.40;;;;;;5972979;23;114314;-84
2022/11/02 12:48:59;;;;;;;9.00;4.80;;;16.00;56.60;;;;;;5996664;23;114217;-83
2022/11/02 12:51:28;;;;;;;9.70;4.95;;;16.00;56.30;;;;;;5996707;23;114477;-81
2022/11/02 12:53:58;;;;;;;7.93;4.75;;;15.80;56.10;;;;;;5969326;23;115523;-81
2022/11/02 12:57:01;;;;;;;6.53;4.50;;;15.80;56.10;;;;;;5970045;23;114609;-83
2022/11/02 12:59:32;;;;;;;8.82;4.63;;;15.80;56.30;;;;;;5936204;23;114327;-81
2022/11/02 13:02:12;;;;;;;7.20;4.88;;;15.70;56.40;;;;;;5985341;23;114294;-83
2022/11/02 13:04:48;;;;;;;9.05;5.50;;;15.70;56.30;;;;;;5969126;23;114683;-83
2022/11/02 13:07:25;;;;;;;9.02;5.57;;;15.60;56.70;;;;;;5971071;23;114917;-82
2022/11/02 13:10:02;;;;;;;9.77;5.80;;;15.50;57.10;;;;;;5971509;23;115018;-83